Portada
METAR-TAF:

METAR-TAF

Aeroports :

Chièvres, Bèlgica

latitud: 50-34N, longitud: 003-50E, altitud: 60 m

Observació

L'informe es va fer fa 21 minuts, a les 14:25 UTC
Vent 6 kt del Nord
Temperatura 22°C
Humitat 38%
Pressió 1033 hPa
Visibilitat 10 km o més

METAR: EBCV 251425Z AUTO 36006KT 9999 FEW056/// 22/07 Q1033 BLU

Hora: 16:46 (14:46 UTC)

Pronòstic

L'informe es va fer fa 3 hores i 5 minuts, a les 11:41 UTC
Pronòstic vàlid del 25 a les 13 UTC al 25 a les 22 UTC
Vent 6 kt del Nord
Visibilitat 10 km o més
Escasses núvols a una alçada de 4500 ft
Temporalment
l' 25 a les 13 UTC al 25 a les 16 UTC
Núvols disperses a una alçada de 5500 ft
Evolucionant progressivament
l' 25 a les 16 UTC al 25 a les 18 UTC
Vent 4 kt del Nord/Nord-Est
Núvols disperses a una alçada de 30000 ft

TAF: EBCV 251141Z 2513/2522 35006KT 9999 FEW045 TEMPO 2513/2516 SCT055 BECMG 2516/2518 03004KT SCT300 BY EBWM

Observacions i pronòstics meteorològics de més de 4000 aeroports (METAR i TAF).

Les estacions disponibles són els punts grocs i vermells al mapa.

Posi el ratolí al punt desitjat per veure el nom de l'estació.

Feu clic per veure les observacions i els pronòstics meteorològics.

Per canviar el mapa: feu clic els botons verds amb una creu de color negre per apropar; al botó verd amb un guió per allunyar la imatge; o en les fletxes verdes per a mapes adjacents.


METAR-TAF: